Time;durP1;ratioP1;P1;durP2;ratioP2;P2;SDS_P1;SDS_P2;PMS_P1;PMS_P2;Temp;Humidity;BMP_temperature;BMP_pressure;BME280_temperature;BME280_humidity;BME280_pressure;Samples;Min_cycle;Max_cycle;Signal;HPM_P1;HPM_P2
2022/08/15 00:00:38;;;;;;;3.17;2.83;;;;;;;;;;5072088;28;20230;-82
2022/08/15 00:03:06;;;;;;;4.38;2.80;;;;;;;;;;5068700;28;20225;-82
2022/08/15 00:05:34;;;;;;;3.45;2.65;;;;;;;;;;5060214;28;20236;-82
2022/08/15 00:08:01;;;;;;;3.67;2.90;;;;;;;;;;5047051;28;20206;-82
2022/08/15 00:10:29;;;;;;;2.35;2.20;;;;;;;;;;5061370;28;20260;-82
2022/08/15 00:13:00;;;;;;;2.67;2.38;;;;;;;;;;5055629;28;20540;-82
2022/08/15 00:15:27;;;;;;;3.38;2.38;;;;;;;;;;5054648;28;20266;-82
2022/08/15 00:17:55;;;;;;;4.63;2.58;;;;;;;;;;5054439;28;20570;-82
2022/08/15 00:20:22;;;;;;;2.42;2.22;;;;;;;;;;5053968;28;20237;-82
2022/08/15 00:22:51;;;;;;;2.58;2.20;;;;;;;;;;5054397;28;20212;-82
2022/08/15 00:25:19;;;;;;;2.47;2.28;;;;;;;;;;5054136;28;20234;-82
2022/08/15 00:27:48;;;;;;;2.95;2.55;;;;;;;;;;5054180;28;20813;-82
2022/08/15 00:30:15;;;;;;;5.45;2.40;;;;;;;;;;5054023;28;20720;-82
2022/08/15 00:32:42;;;;;;;2.33;2.13;;;;;;;;;;5054016;28;20202;-82
2022/08/15 00:37:55;;;;;;;5.15;2.53;;;;;;;;;;5054200;28;20680;-82
2022/08/15 00:40:22;;;;;;;4.80;2.05;;;;;;;;;;5053876;28;20226;-82
2022/08/15 00:42:50;;;;;;;2.42;2.22;;;;;;;;;;5053741;28;20723;-82
2022/08/15 00:45:17;;;;;;;2.80;2.30;;;;;;;;;;5053711;28;20313;-80
2022/08/15 00:48:41;;;;;;;5.75;2.38;;;;;;;;;;5054062;28;20217;-82
2022/08/15 00:50:31;;;;;;;4.18;2.03;;;;;;;;;;5043950;28;20263;-82
2022/08/15 00:52:59;;;;;;;4.38;2.35;;;;;;;;;;5053744;28;20213;-82
2022/08/15 00:55:28;;;;;;;5.22;2.30;;;;;;;;;;5052935;28;20763;-82
2022/08/15 00:57:57;;;;;;;6.60;2.60;;;;;;;;;;5053906;28;20198;-82
2022/08/15 01:00:25;;;;;;;2.92;2.20;;;;;;;;;;5053167;28;20726;-82
2022/08/15 01:02:54;;;;;;;3.70;2.33;;;;;;;;;;5053833;28;20209;-82
2022/08/15 01:05:21;;;;;;;4.28;2.22;;;;;;;;;;5048169;28;20606;-82
2022/08/15 01:07:48;;;;;;;3.75;2.20;;;;;;;;;;5050331;28;20234;-82
2022/08/15 01:10:16;;;;;;;2.38;2.17;;;;;;;;;;5053023;28;20240;-82
2022/08/15 01:12:43;;;;;;;2.20;2.00;;;;;;;;;;5053056;28;20195;-82
2022/08/15 01:15:14;;;;;;;3.60;2.28;;;;;;;;;;5053256;28;20234;-82
2022/08/15 01:17:42;;;;;;;3.03;2.33;;;;;;;;;;5053537;28;20216;-82
2022/08/15 01:20:13;;;;;;;3.95;1.83;;;;;;;;;;5052965;28;20237;-82
2022/08/15 01:22:58;;;;;;;2.33;2.08;;;;;;;;;;5052753;28;20206;-81
2022/08/15 01:25:29;;;;;;;6.78;2.40;;;;;;;;;;5052588;28;20238;-82
2022/08/15 01:27:59;;;;;;;2.17;1.95;;;;;;;;;;5053289;28;20198;-82
2022/08/15 01:30:28;;;;;;;4.72;2.25;;;;;;;;;;5052631;28;20226;-82
2022/08/15 01:32:55;;;;;;;2.72;2.20;;;;;;;;;;5053250;28;20213;-82
2022/08/15 01:35:22;;;;;;;3.55;2.20;;;;;;;;;;5062252;28;20233;-82
2022/08/15 01:37:51;;;;;;;3.28;2.03;;;;;;;;;;5062424;28;20760;-81
2022/08/15 01:40:26;;;;;;;3.38;2.13;;;;;;;;;;5055770;28;20233;-82
2022/08/15 01:42:55;;;;;;;2.20;2.00;;;;;;;;;;5052992;28;20553;-82
2022/08/15 01:45:26;;;;;;;3.05;2.45;;;;;;;;;;5052249;28;20307;-82
2022/08/15 01:47:56;;;;;;;7.03;2.55;;;;;;;;;;5053275;28;20202;-81
2022/08/15 01:50:26;;;;;;;4.78;1.95;;;;;;;;;;5054992;28;20271;-82
2022/08/15 01:52:55;;;;;;;6.93;2.25;;;;;;;;;;5057122;28;20212;-82
2022/08/15 01:55:27;;;;;;;3.70;2.45;;;;;;;;;;5052500;28;20247;-82
2022/08/15 01:57:55;;;;;;;3.25;2.40;;;;;;;;;;5052617;28;20198;-82
2022/08/15 02:00:23;;;;;;;5.43;2.70;;;;;;;;;;5052448;28;20633;-82
2022/08/15 02:02:50;;;;;;;3.72;2.35;;;;;;;;;;5052298;28;20213;-83
2022/08/15 02:05:17;;;;;;;4.18;2.53;;;;;;;;;;5052203;28;20233;-82
2022/08/15 02:07:44;;;;;;;4.20;2.90;;;;;;;;;;5052486;28;20209;-82
2022/08/15 02:10:12;;;;;;;8.75;2.75;;;;;;;;;;5052333;28;20233;-82
2022/08/15 02:12:40;;;;;;;6.63;2.45;;;;;;;;;;5052192;28;20205;-82
2022/08/15 02:15:12;;;;;;;3.33;2.30;;;;;;;;;;5052219;28;20313;-82
2022/08/15 02:17:39;;;;;;;5.68;2.63;;;;;;;;;;5052080;28;20217;-83
2022/08/15 02:20:06;;;;;;;7.03;2.70;;;;;;;;;;5036713;28;20237;-82
2022/08/15 02:22:33;;;;;;;4.38;2.83;;;;;;;;;;5052487;28;20244;-83
2022/08/15 02:25:01;;;;;;;3.67;2.38;;;;;;;;;;5051407;28;20232;-83
2022/08/15 02:27:29;;;;;;;2.55;2.30;;;;;;;;;;5052190;28;20293;-82
2022/08/15 02:29:56;;;;;;;2.80;2.13;;;;;;;;;;5051265;28;20210;-82
2022/08/15 02:32:25;;;;;;;5.50;2.67;;;;;;;;;;5050303;28;20201;-83
2022/08/15 02:34:53;;;;;;;3.58;2.70;;;;;;;;;;5051519;28;20704;-84
2022/08/15 02:37:20;;;;;;;4.10;2.35;;;;;;;;;;5051593;28;20198;-83
2022/08/15 02:39:48;;;;;;;2.72;2.38;;;;;;;;;;5050795;28;20205;-84
2022/08/15 02:42:15;;;;;;;9.30;2.83;;;;;;;;;;5052075;28;20198;-83
2022/08/15 02:44:43;;;;;;;4.93;2.47;;;;;;;;;;5051642;28;20229;-83
2022/08/15 02:47:13;;;;;;;4.28;2.50;;;;;;;;;;5051129;28;20240;-83
2022/08/15 02:49:41;;;;;;;3.10;2.90;;;;;;;;;;5051008;28;20194;-83
2022/08/15 02:52:08;;;;;;;5.72;3.08;;;;;;;;;;5056249;28;20234;-83
2022/08/15 02:54:36;;;;;;;6.68;3.75;;;;;;;;;;5067344;28;20224;-83
2022/08/15 02:57:04;;;;;;;4.57;2.65;;;;;;;;;;5067816;28;20241;-83
2022/08/15 02:59:31;;;;;;;6.75;2.80;;;;;;;;;;5057675;28;20228;-82
2022/08/15 03:01:59;;;;;;;6.20;2.90;;;;;;;;;;5051224;28;20264;-83
2022/08/15 03:04:30;;;;;;;4.40;2.80;;;;;;;;;;5051691;28;20313;-83
2022/08/15 03:06:59;;;;;;;4.43;2.55;;;;;;;;;;5051212;28;20329;-83
2022/08/15 03:09:26;;;;;;;7.72;3.30;;;;;;;;;;5051462;28;20205;-84
2022/08/15 03:11:55;;;;;;;3.63;2.67;;;;;;;;;;5050355;28;20266;-84
2022/08/15 03:14:23;;;;;;;6.82;2.90;;;;;;;;;;5051547;28;20228;-83
2022/08/15 03:16:51;;;;;;;6.90;2.50;;;;;;;;;;5050146;28;20284;-85
2022/08/15 03:19:25;;;;;;;8.55;2.47;;;;;;;;;;5051062;28;20569;-84
2022/08/15 03:21:52;;;;;;;4.13;2.70;;;;;;;;;;5049751;28;20233;-83
2022/08/15 03:24:22;;;;;;;3.63;2.65;;;;;;;;;;5050689;28;20195;-84
2022/08/15 03:26:50;;;;;;;7.07;2.40;;;;;;;;;;5051107;28;20234;-84
2022/08/15 03:29:18;;;;;;;2.97;2.30;;;;;;;;;;5049858;28;20280;-83
2022/08/15 03:31:47;;;;;;;4.50;2.10;;;;;;;;;;5050136;28;20256;-83
2022/08/15 03:34:15;;;;;;;4.88;2.40;;;;;;;;;;5058536;28;20233;-84
2022/08/15 03:36:45;;;;;;;4.15;2.17;;;;;;;;;;5049479;28;20233;-84
2022/08/15 03:39:12;;;;;;;4.40;2.60;;;;;;;;;;5070661;28;20201;-83
2022/08/15 03:41:41;;;;;;;4.50;2.60;;;;;;;;;;5070702;28;20237;-84
2022/08/15 03:44:08;;;;;;;5.00;2.70;;;;;;;;;;5064917;28;20593;-82
2022/08/15 03:46:35;;;;;;;3.08;2.33;;;;;;;;;;5051196;28;20233;-84
2022/08/15 03:49:02;;;;;;;5.47;2.50;;;;;;;;;;5051295;28;20198;-82
2022/08/15 03:51:30;;;;;;;3.90;2.28;;;;;;;;;;5050715;28;20287;-85
2022/08/15 03:53:58;;;;;;;5.10;2.55;;;;;;;;;;5068550;28;20673;-85
2022/08/15 03:56:27;;;;;;;3.47;2.33;;;;;;;;;;5071445;28;20237;-84
2022/08/15 03:58:56;;;;;;;2.85;2.30;;;;;;;;;;5071920;28;20252;-84
2022/08/15 04:01:24;;;;;;;3.50;2.58;;;;;;;;;;5071638;28;20233;-84
2022/08/15 04:03:52;;;;;;;5.30;2.53;;;;;;;;;;5069878;28;20248;-84
2022/08/15 04:06:20;;;;;;;4.28;2.38;;;;;;;;;;5071594;28;20255;-83
2022/08/15 04:08:48;;;;;;;3.45;2.70;;;;;;;;;;5054817;28;20592;-85
2022/08/15 04:11:16;;;;;;;6.50;2.55;;;;;;;;;;5051081;28;20320;-82
2022/08/15 04:13:44;;;;;;;4.03;2.50;;;;;;;;;;5051913;28;20225;-89
2022/08/15 04:16:13;;;;;;;8.15;2.47;;;;;;;;;;5051173;28;20237;-85
2022/08/15 04:18:41;;;;;;;2.88;2.33;;;;;;;;;;5055781;28;20202;-84
2022/08/15 04:21:11;;;;;;;4.35;2.40;;;;;;;;;;5071488;28;20229;-86
2022/08/15 04:23:40;;;;;;;4.18;2.40;;;;;;;;;;5058593;28;20210;-87
2022/08/15 04:26:07;;;;;;;3.50;2.75;;;;;;;;;;5050773;28;20817;-83
2022/08/15 04:28:34;;;;;;;2.75;2.17;;;;;;;;;;5052424;28;20198;-83
2022/08/15 04:31:02;;;;;;;4.10;2.83;;;;;;;;;;5058061;28;20236;-81
2022/08/15 04:33:31;;;;;;;3.22;2.20;;;;;;;;;;5057595;28;20643;-83
2022/08/15 04:36:00;;;;;;;5.38;2.58;;;;;;;;;;5057959;28;20732;-82
2022/08/15 04:38:27;;;;;;;3.42;2.40;;;;;;;;;;5058639;28;20221;-81
2022/08/15 04:40:55;;;;;;;3.38;2.60;;;;;;;;;;5058059;28;20710;-84
2022/08/15 04:43:23;;;;;;;2.55;2.40;;;;;;;;;;5057738;28;20630;-85
2022/08/15 04:45:50;;;;;;;3.42;2.53;;;;;;;;;;5054702;28;20260;-82
2022/08/15 04:48:18;;;;;;;4.40;2.30;;;;;;;;;;5055630;28;20213;-84
2022/08/15 04:50:48;;;;;;;3.75;2.45;;;;;;;;;;5054551;28;20237;-83
2022/08/15 04:53:15;;;;;;;5.43;2.55;;;;;;;;;;5054420;28;20295;-82
2022/08/15 04:55:44;;;;;;;4.28;2.60;;;;;;;;;;5037546;28;20687;-81
2022/08/15 04:58:12;;;;;;;4.10;2.88;;;;;;;;;;5035627;28;20210;-85
2022/08/15 05:00:40;;;;;;;3.13;2.38;;;;;;;;;;5047411;28;20211;-81
2022/08/15 05:03:09;;;;;;;3.17;2.22;;;;;;;;;;5054055;28;20198;-83
2022/08/15 05:05:38;;;;;;;4.43;2.10;;;;;;;;;;5055524;28;20229;-83
2022/08/15 05:08:07;;;;;;;5.30;2.80;;;;;;;;;;5057070;28;20206;-82
2022/08/15 05:10:34;;;;;;;3.78;2.70;;;;;;;;;;5055788;28;20237;-84
2022/08/15 05:13:08;;;;;;;3.67;2.35;;;;;;;;;;5055118;28;20206;-80
2022/08/15 05:15:35;;;;;;;4.70;2.80;;;;;;;;;;5055481;28;20632;-82
2022/08/15 05:18:02;;;;;;;3.60;2.53;;;;;;;;;;5069125;28;20241;-81
2022/08/15 05:20:29;;;;;;;5.22;2.42;;;;;;;;;;5069526;28;20234;-79
2022/08/15 05:22:58;;;;;;;2.85;2.55;;;;;;;;;;5068226;28;20206;-79
2022/08/15 05:25:26;;;;;;;3.20;2.47;;;;;;;;;;5067379;28;20261;-78
2022/08/15 05:27:54;;;;;;;5.82;2.38;;;;;;;;;;5065900;28;20217;-79
2022/08/15 05:30:22;;;;;;;2.90;2.30;;;;;;;;;;5063782;28;20233;-78
2022/08/15 05:32:49;;;;;;;3.50;2.65;;;;;;;;;;5067240;28;20233;-78
2022/08/15 05:35:16;;;;;;;3.63;2.67;;;;;;;;;;5067239;28;20237;-78
2022/08/15 05:37:44;;;;;;;3.00;2.70;;;;;;;;;;5059138;28;20256;-78
2022/08/15 05:40:11;;;;;;;4.05;2.72;;;;;;;;;;5058554;28;20295;-79
2022/08/15 05:42:45;;;;;;;2.97;2.42;;;;;;;;;;5054301;28;20213;-78
2022/08/15 05:45:17;;;;;;;3.13;2.60;;;;;;;;;;5053663;28;20234;-78
2022/08/15 05:47:47;;;;;;;3.78;2.78;;;;;;;;;;5057456;28;20292;-81
2022/08/15 05:50:15;;;;;;;2.70;2.50;;;;;;;;;;5056799;28;20250;-81
2022/08/15 05:52:47;;;;;;;3.83;2.80;;;;;;;;;;5064920;28;20202;-81
2022/08/15 05:55:19;;;;;;;4.80;2.90;;;;;;;;;;5070218;28;20233;-81
2022/08/15 05:57:54;;;;;;;4.53;2.53;;;;;;;;;;5063388;28;20632;-81
2022/08/15 06:00:21;;;;;;;4.10;3.05;;;;;;;;;;5059448;28;20308;-81
2022/08/15 06:02:49;;;;;;;5.43;2.75;;;;;;;;;;5059450;28;20248;-82
2022/08/15 06:05:18;;;;;;;4.20;2.50;;;;;;;;;;5058926;28;20238;-82
2022/08/15 06:07:48;;;;;;;5.88;2.67;;;;;;;;;;5067183;28;20203;-81
2022/08/15 06:10:25;;;;;;;5.40;3.10;;;;;;;;;;5073412;28;20229;-81
2022/08/15 06:12:55;;;;;;;4.38;2.88;;;;;;;;;;5078653;28;20201;-82
2022/08/15 06:15:25;;;;;;;4.30;2.85;;;;;;;;;;5078027;28;20233;-81
2022/08/15 06:17:54;;;;;;;7.07;2.95;;;;;;;;;;5078679;28;20212;-81
2022/08/15 06:20:23;;;;;;;3.97;2.50;;;;;;;;;;5078589;28;20233;-81
2022/08/15 06:22:55;;;;;;;5.00;2.45;;;;;;;;;;5078875;28;20216;-81
2022/08/15 06:25:28;;;;;;;4.13;2.75;;;;;;;;;;5078417;28;20685;-82
2022/08/15 06:28:02;;;;;;;4.13;3.72;;;;;;;;;;5074981;28;20209;-81
2022/08/15 06:30:33;;;;;;;3.22;2.47;;;;;;;;;;5070346;28;20724;-82
2022/08/15 06:33:06;;;;;;;4.80;2.60;;;;;;;;;;5079027;28;20568;-81
2022/08/15 06:35:39;;;;;;;4.18;3.22;;;;;;;;;;5077565;28;20233;-81
2022/08/15 06:38:10;;;;;;;4.35;2.80;;;;;;;;;;5078678;28;20212;-82
2022/08/15 06:40:42;;;;;;;4.85;2.88;;;;;;;;;;5072254;28;20230;-82
2022/08/15 06:43:12;;;;;;;3.65;2.95;;;;;;;;;;5064566;28;20201;-81
2022/08/15 06:45:40;;;;;;;5.57;2.92;;;;;;;;;;5062840;28;20229;-82
2022/08/15 06:48:09;;;;;;;7.22;3.25;;;;;;;;;;5052902;28;20214;-82
2022/08/15 06:50:39;;;;;;;6.20;2.70;;;;;;;;;;5053167;28;20233;-82
2022/08/15 06:53:08;;;;;;;3.50;2.75;;;;;;;;;;5073592;28;20233;-82
2022/08/15 06:55:42;;;;;;;3.83;3.20;;;;;;;;;;5071051;28;20697;-81
2022/08/15 06:58:14;;;;;;;3.67;2.72;;;;;;;;;;5073016;28;20206;-82
2022/08/15 07:00:45;;;;;;;3.85;3.03;;;;;;;;;;5058425;28;20237;-81
2022/08/15 07:03:19;;;;;;;4.63;2.88;;;;;;;;;;5058594;28;20269;-81
2022/08/15 07:05:47;;;;;;;6.70;3.13;;;;;;;;;;5058416;28;20306;-81
2022/08/15 07:08:19;;;;;;;5.47;3.67;;;;;;;;;;5058006;28;20213;-81
2022/08/15 07:10:48;;;;;;;4.25;2.95;;;;;;;;;;5057076;28;20234;-81
2022/08/15 07:13:20;;;;;;;3.97;3.28;;;;;;;;;;5057872;28;20195;-81
2022/08/15 07:15:50;;;;;;;3.95;2.85;;;;;;;;;;5061379;28;20238;-81
2022/08/15 07:18:20;;;;;;;5.70;2.95;;;;;;;;;;5060716;28;20202;-81
2022/08/15 07:20:47;;;;;;;8.15;3.15;;;;;;;;;;5058142;28;20239;-80
2022/08/15 07:23:24;;;;;;;3.67;2.65;;;;;;;;;;5058048;28;20669;-81
2022/08/15 07:25:53;;;;;;;6.70;2.83;;;;;;;;;;5065823;28;20236;-80
2022/08/15 07:28:26;;;;;;;3.97;2.67;;;;;;;;;;5057704;28;20742;-81
2022/08/15 07:30:54;;;;;;;6.75;2.97;;;;;;;;;;5057861;28;20230;-82
2022/08/15 07:33:32;;;;;;;4.57;2.92;;;;;;;;;;5057225;28;20202;-82
2022/08/15 07:36:02;;;;;;;4.68;2.85;;;;;;;;;;5057130;28;20237;-82
2022/08/15 07:38:30;;;;;;;3.72;3.05;;;;;;;;;;5055772;28;20661;-82
2022/08/15 07:41:13;;;;;;;4.75;3.25;;;;;;;;;;5055338;28;20234;-83
2022/08/15 07:43:42;;;;;;;3.65;2.90;;;;;;;;;;5055717;28;20213;-83
2022/08/15 07:46:11;;;;;;;3.42;3.03;;;;;;;;;;5053553;28;20682;-82
2022/08/15 07:48:39;;;;;;;2.83;2.60;;;;;;;;;;5054446;28;20584;-83
2022/08/15 07:51:09;;;;;;;6.10;3.13;;;;;;;;;;5052614;28;20257;-83
2022/08/15 07:53:49;;;;;;;3.25;2.35;;;;;;;;;;5054539;28;20224;-82
2022/08/15 07:56:17;;;;;;;5.88;2.92;;;;;;;;;;5053625;28;20592;-82
2022/08/15 07:58:46;;;;;;;4.15;2.75;;;;;;;;;;5054338;28;20682;-82
2022/08/15 08:01:14;;;;;;;4.78;2.97;;;;;;;;;;5053516;28;20245;-84
2022/08/15 08:03:42;;;;;;;6.03;3.08;;;;;;;;;;5054723;28;20210;-82
2022/08/15 08:06:18;;;;;;;3.90;2.88;;;;;;;;;;5073629;28;20290;-82
2022/08/15 08:08:48;;;;;;;5.95;2.90;;;;;;;;;;5059748;28;20637;-84
2022/08/15 08:11:20;;;;;;;3.90;2.90;;;;;;;;;;5056337;28;20746;-83
2022/08/15 08:13:54;;;;;;;6.05;3.35;;;;;;;;;;5059188;28;20202;-82
2022/08/15 08:16:28;;;;;;;4.20;2.97;;;;;;;;;;5064298;28;20257;-83
2022/08/15 08:18:59;;;;;;;4.38;2.92;;;;;;;;;;5056081;28;20237;-83
2022/08/15 08:21:29;;;;;;;5.03;3.20;;;;;;;;;;5055611;28;20252;-84
2022/08/15 08:24:00;;;;;;;4.28;2.72;;;;;;;;;;5055841;28;20202;-82
2022/08/15 08:26:31;;;;;;;4.95;3.15;;;;;;;;;;5055502;28;20230;-83
2022/08/15 08:29:03;;;;;;;4.63;3.20;;;;;;;;;;5056502;28;20715;-82
2022/08/15 08:31:34;;;;;;;3.47;3.10;;;;;;;;;;5055593;28;20267;-79
2022/08/15 08:34:07;;;;;;;5.25;3.15;;;;;;;;;;5057525;28;20589;-79
2022/08/15 08:36:37;;;;;;;5.88;3.20;;;;;;;;;;5056607;28;20377;-80
2022/08/15 08:39:14;;;;;;;4.30;3.90;;;;;;;;;;5056800;28;20216;-80
2022/08/15 08:41:45;;;;;;;3.53;2.90;;;;;;;;;;5061540;28;20606;-80
2022/08/15 08:44:18;;;;;;;5.85;3.63;;;;;;;;;;5060962;28;20202;-82
2022/08/15 08:46:55;;;;;;;8.10;2.95;;;;;;;;;;5059272;28;20233;-81
2022/08/15 08:49:26;;;;;;;6.25;3.95;;;;;;;;;;5062705;28;20202;-81
2022/08/15 08:51:59;;;;;;;6.93;3.35;;;;;;;;;;5060709;28;20249;-82
2022/08/15 08:54:29;;;;;;;6.60;3.33;;;;;;;;;;5057139;28;20509;-84
2022/08/15 08:57:00;;;;;;;3.47;2.83;;;;;;;;;;5056305;28;20295;-84
2022/08/15 08:59:31;;;;;;;3.20;2.70;;;;;;;;;;5056013;28;20249;-82
2022/08/15 09:02:00;;;;;;;2.75;2.55;;;;;;;;;;5054171;28;20245;-84
2022/08/15 09:04:36;;;;;;;2.70;2.50;;;;;;;;;;5056602;28;20666;-82
2022/08/15 09:07:06;;;;;;;4.70;3.13;;;;;;;;;;5055826;28;20230;-82
2022/08/15 09:09:35;;;;;;;5.35;2.63;;;;;;;;;;5052383;28;20205;-83
2022/08/15 09:12:04;;;;;;;5.05;3.20;;;;;;;;;;5054489;28;20262;-84
2022/08/15 09:14:34;;;;;;;5.80;2.90;;;;;;;;;;5054413;28;20261;-83
2022/08/15 09:17:04;;;;;;;3.92;2.90;;;;;;;;;;5054475;28;20256;-83
2022/08/15 09:19:38;;;;;;;3.85;3.17;;;;;;;;;;5057226;28;20222;-83
2022/08/15 09:22:05;;;;;;;5.43;3.20;;;;;;;;;;5056211;28;20234;-83
2022/08/15 09:24:33;;;;;;;3.92;2.90;;;;;;;;;;5056720;28;20265;-83
2022/08/15 09:27:02;;;;;;;6.13;3.55;;;;;;;;;;5055918;28;20230;-82
2022/08/15 09:29:30;;;;;;;4.05;3.15;;;;;;;;;;5060923;28;20217;-80
2022/08/15 09:32:09;;;;;;;3.33;3.08;;;;;;;;;;5070377;28;20279;-82
2022/08/15 09:34:45;;;;;;;3.35;2.80;;;;;;;;;;5079799;28;20225;-82
2022/08/15 09:37:19;;;;;;;4.00;3.35;;;;;;;;;;5078751;28;20233;-84
2022/08/15 09:39:53;;;;;;;4.68;2.80;;;;;;;;;;5076111;28;20216;-83
2022/08/15 09:42:29;;;;;;;2.90;2.63;;;;;;;;;;5076795;28;20193;-84
2022/08/15 09:45:02;;;;;;;3.75;2.70;;;;;;;;;;5077058;28;20236;-82
2022/08/15 09:47:39;;;;;;;3.55;2.70;;;;;;;;;;5076071;28;20657;-82
2022/08/15 09:50:14;;;;;;;3.97;2.53;;;;;;;;;;5076331;28;20241;-83
2022/08/15 09:52:48;;;;;;;3.92;2.90;;;;;;;;;;5075926;28;20626;-83
2022/08/15 09:55:19;;;;;;;3.97;2.67;;;;;;;;;;5075046;28;20236;-84
2022/08/15 09:57:48;;;;;;;4.80;2.55;;;;;;;;;;5075051;28;20233;-83
2022/08/15 10:00:22;;;;;;;4.38;2.55;;;;;;;;;;5076693;28;20685;-83
2022/08/15 10:02:51;;;;;;;2.80;2.60;;;;;;;;;;5066915;28;20205;-83
2022/08/15 10:05:27;;;;;;;4.47;2.47;;;;;;;;;;5074733;28;20237;-84
2022/08/15 10:07:55;;;;;;;2.28;2.15;;;;;;;;;;5075062;28;20265;-83
2022/08/15 10:10:24;;;;;;;4.32;2.63;;;;;;;;;;5074557;28;20720;-82
2022/08/15 10:13:13;;;;;;;5.82;2.38;;;;;;;;;;5074137;28;20209;-84
2022/08/15 10:15:43;;;;;;;3.33;2.42;;;;;;;;;;5073943;28;20244;-84
2022/08/15 10:18:31;;;;;;;4.22;2.67;;;;;;;;;;5074156;28;20685;-84
2022/08/15 10:21:01;;;;;;;2.72;2.53;;;;;;;;;;5073631;28;20225;-82
2022/08/15 10:23:29;;;;;;;5.20;2.60;;;;;;;;;;5075336;28;20205;-85
2022/08/15 10:26:11;;;;;;;4.05;2.20;;;;;;;;;;5069622;28;20231;-84
2022/08/15 10:28:40;;;;;;;2.72;2.25;;;;;;;;;;5056174;28;20209;-83
2022/08/15 10:31:23;;;;;;;5.03;3.22;;;;;;;;;;5072502;28;20294;-83
2022/08/15 10:33:52;;;;;;;6.90;2.33;;;;;;;;;;5073747;28;20197;-84
2022/08/15 10:36:23;;;;;;;4.75;2.42;;;;;;;;;;5072779;28;20692;-82
2022/08/15 10:38:52;;;;;;;3.95;2.55;;;;;;;;;;5073386;28;20200;-83
2022/08/15 10:41:24;;;;;;;2.80;2.20;;;;;;;;;;5072517;28;20315;-85
2022/08/15 10:43:56;;;;;;;3.20;2.47;;;;;;;;;;5072838;28;20220;-83
2022/08/15 10:46:24;;;;;;;3.35;2.50;;;;;;;;;;5072351;28;20237;-81
2022/08/15 10:49:08;;;;;;;4.65;2.70;;;;;;;;;;5056045;28;20209;-80
2022/08/15 10:51:43;;;;;;;4.32;2.80;;;;;;;;;;5056758;28;20234;-81
2022/08/15 10:54:16;;;;;;;3.03;2.40;;;;;;;;;;5054288;28;20618;-82
2022/08/15 10:56:44;;;;;;;4.63;2.60;;;;;;;;;;5054981;28;20269;-82
2022/08/15 10:59:13;;;;;;;5.00;2.47;;;;;;;;;;5053874;28;20206;-82
2022/08/15 11:01:43;;;;;;;2.63;2.42;;;;;;;;;;5052606;28;20375;-80
2022/08/15 11:04:23;;;;;;;2.33;2.13;;;;;;;;;;5056691;28;20212;-81
2022/08/15 11:06:51;;;;;;;2.88;2.53;;;;;;;;;;5053923;28;20709;-85
2022/08/15 11:09:19;;;;;;;3.17;2.88;;;;;;;;;;5056355;28;20222;-81
2022/08/15 11:11:50;;;;;;;2.70;2.50;;;;;;;;;;5055086;28;20591;-84
2022/08/15 11:14:19;;;;;;;2.90;2.55;;;;;;;;;;5052692;28;20213;-84
2022/08/15 11:16:47;;;;;;;3.35;2.40;;;;;;;;;;5051759;28;20245;-82
2022/08/15 11:19:18;;;;;;;4.18;2.47;;;;;;;;;;5051654;28;20631;-84
2022/08/15 11:21:49;;;;;;;3.08;2.40;;;;;;;;;;5051312;28;20352;-82
2022/08/15 11:24:25;;;;;;;2.60;2.40;;;;;;;;;;5051689;28;20206;-81
2022/08/15 11:27:08;;;;;;;3.83;2.42;;;;;;;;;;5051657;28;20229;-83
2022/08/15 11:29:35;;;;;;;3.35;2.65;;;;;;;;;;5052373;28;20282;-85
2022/08/15 11:32:02;;;;;;;3.25;2.92;;;;;;;;;;5051802;28;20724;-80
2022/08/15 11:34:33;;;;;;;3.15;2.53;;;;;;;;;;5053181;28;20232;-80
2022/08/15 11:37:04;;;;;;;3.10;2.80;;;;;;;;;;5052736;28;20698;-83
2022/08/15 11:39:31;;;;;;;4.53;2.28;;;;;;;;;;5050080;28;20256;-82
2022/08/15 11:42:02;;;;;;;3.17;2.70;;;;;;;;;;5071145;28;20233;-82
2022/08/15 11:44:35;;;;;;;3.05;2.10;;;;;;;;;;5071256;28;20231;-82
2022/08/15 11:47:02;;;;;;;4.25;2.45;;;;;;;;;;5042279;28;20711;-83
2022/08/15 11:49:32;;;;;;;2.88;2.45;;;;;;;;;;5054143;28;20213;-83
2022/08/15 11:52:02;;;;;;;2.75;2.15;;;;;;;;;;5051232;28;20233;-83
2022/08/15 11:54:29;;;;;;;4.90;2.50;;;;;;;;;;5051630;28;20237;-83
2022/08/15 11:56:57;;;;;;;2.58;2.35;;;;;;;;;;5051455;28;20287;-83
2022/08/15 11:59:25;;;;;;;4.35;2.40;;;;;;;;;;5051745;28;20202;-82
2022/08/15 12:02:07;;;;;;;3.85;2.70;;;;;;;;;;5051057;28;20245;-82
2022/08/15 12:04:38;;;;;;;3.38;2.63;;;;;;;;;;5069176;28;20224;-82
2022/08/15 12:07:08;;;;;;;2.58;2.40;;;;;;;;;;5056617;28;20261;-81
2022/08/15 12:09:35;;;;;;;3.13;2.63;;;;;;;;;;5059694;28;20237;-82
2022/08/15 12:12:02;;;;;;;3.50;2.63;;;;;;;;;;5050805;28;20234;-82
2022/08/15 12:14:30;;;;;;;2.83;2.63;;;;;;;;;;5051409;28;20233;-82
2022/08/15 12:16:59;;;;;;;3.15;2.78;;;;;;;;;;5045471;28;20233;-83
2022/08/15 12:19:29;;;;;;;3.00;2.80;;;;;;;;;;5048096;28;20197;-83
2022/08/15 12:21:58;;;;;;;5.38;3.30;;;;;;;;;;5065495;28;20232;-84
2022/08/15 12:24:26;;;;;;;3.25;3.00;;;;;;;;;;5055140;28;20210;-82
2022/08/15 12:26:55;;;;;;;3.15;2.58;;;;;;;;;;5050636;28;20234;-83
2022/08/15 12:29:24;;;;;;;3.33;2.83;;;;;;;;;;5051384;28;20684;-83
2022/08/15 12:31:53;;;;;;;5.63;3.50;;;;;;;;;;5050745;28;20244;-82
2022/08/15 12:34:22;;;;;;;2.85;2.65;;;;;;;;;;5044426;28;20661;-82
2022/08/15 12:36:49;;;;;;;4.60;2.83;;;;;;;;;;5058356;28;20236;-82
2022/08/15 12:39:19;;;;;;;4.78;4.28;;;;;;;;;;5051623;28;20233;-83
2022/08/15 12:41:48;;;;;;;2.85;2.63;;;;;;;;;;5045967;28;20226;-83
2022/08/15 12:44:18;;;;;;;3.42;2.40;;;;;;;;;;5031597;28;20206;-82
2022/08/15 12:46:45;;;;;;;2.45;2.30;;;;;;;;;;5030866;28;20242;-82
2022/08/15 12:49:12;;;;;;;4.10;2.40;;;;;;;;;;5032460;28;20634;-83
2022/08/15 12:51:40;;;;;;;3.28;2.67;;;;;;;;;;5034004;28;20234;-84
2022/08/15 12:54:07;;;;;;;2.95;2.58;;;;;;;;;;5035178;28;20222;-83
2022/08/15 12:56:35;;;;;;;2.25;2.15;;;;;;;;;;5033940;28;20242;-83
2022/08/15 12:59:05;;;;;;;4.57;2.40;;;;;;;;;;5034246;28;20266;-83
2022/08/15 13:01:32;;;;;;;3.30;2.58;;;;;;;;;;5045332;28;20697;-83
2022/08/15 13:04:01;;;;;;;3.28;2.30;;;;;;;;;;5054560;28;20256;-83
2022/08/15 13:06:31;;;;;;;2.55;2.38;;;;;;;;;;5053914;28;20241;-83
2022/08/15 13:08:58;;;;;;;3.28;2.40;;;;;;;;;;5047028;28;20209;-84
2022/08/15 13:11:25;;;;;;;2.78;2.25;;;;;;;;;;5043407;28;20234;-82
2022/08/15 13:13:54;;;;;;;2.20;2.00;;;;;;;;;;5043399;28;20225;-84
2022/08/15 13:16:30;;;;;;;3.50;1.60;;;;;;;;;;5042924;28;20226;-83
2022/08/15 13:18:58;;;;;;;1.80;1.60;;;;;;;;;;5043437;28;20221;-83
2022/08/15 13:24:13;;;;;;;2.15;1.60;;;;;;;;;;5045924;28;20198;-83
2022/08/15 13:26:41;;;;;;;2.03;1.92;;;;;;;;;;5043369;28;20874;-82
2022/08/15 13:29:09;;;;;;;1.70;1.60;;;;;;;;;;5042263;28;20281;-83
2022/08/15 13:31:37;;;;;;;2.13;1.75;;;;;;;;;;5041266;28;20250;-83
2022/08/15 13:34:05;;;;;;;1.70;1.60;;;;;;;;;;5057329;28;20206;-84
2022/08/15 13:36:33;;;;;;;1.92;1.70;;;;;;;;;;5070377;28;20237;-84
2022/08/15 13:39:02;;;;;;;3.88;1.60;;;;;;;;;;5073695;28;20225;-83
2022/08/15 13:41:29;;;;;;;2.50;2.05;;;;;;;;;;5072886;28;20287;-83
2022/08/15 13:43:59;;;;;;;1.88;1.77;;;;;;;;;;5062610;28;20597;-83
2022/08/15 13:46:27;;;;;;;1.52;1.42;;;;;;;;;;5062207;28;20233;-83
2022/08/15 13:48:58;;;;;;;2.10;1.48;;;;;;;;;;5073197;28;20201;-84
2022/08/15 13:51:28;;;;;;;1.60;1.30;;;;;;;;;;5072965;28;20233;-86
2022/08/15 13:53:56;;;;;;;1.52;1.42;;;;;;;;;;5073329;28;20201;-84
2022/08/15 13:56:24;;;;;;;2.47;1.40;;;;;;;;;;5072907;28;20237;-84
2022/08/15 13:58:51;;;;;;;1.85;1.48;;;;;;;;;;5073037;28;20701;-83
2022/08/15 14:01:19;;;;;;;1.60;1.20;;;;;;;;;;5068000;28;20222;-83
2022/08/15 14:03:56;;;;;;;2.22;1.02;;;;;;;;;;5053188;28;20202;-82
2022/08/15 14:06:24;;;;;;;1.40;1.30;;;;;;;;;;5052668;28;20266;-83
2022/08/15 14:08:52;;;;;;;1.65;1.55;;;;;;;;;;5053204;28;20815;-83
2022/08/15 14:11:19;;;;;;;3.33;1.48;;;;;;;;;;5052976;28;20238;-83
2022/08/15 14:13:46;;;;;;;1.60;1.50;;;;;;;;;;5053367;28;20199;-83
2022/08/15 14:16:14;;;;;;;3.47;1.70;;;;;;;;;;5052775;28;20237;-82
2022/08/15 14:18:41;;;;;;;3.05;1.65;;;;;;;;;;5059276;28;20229;-82
2022/08/15 14:21:10;;;;;;;2.03;1.92;;;;;;;;;;5058119;28;20238;-84
2022/08/15 14:23:39;;;;;;;3.35;1.48;;;;;;;;;;5052035;28;20202;-83
2022/08/15 14:26:06;;;;;;;1.63;1.27;;;;;;;;;;5055496;28;20601;-83
2022/08/15 14:28:35;;;;;;;1.40;1.30;;;;;;;;;;5052624;28;20199;-83
2022/08/15 14:31:03;;;;;;;4.10;1.65;;;;;;;;;;5051901;28;20229;-82
2022/08/15 14:33:31;;;;;;;1.60;1.50;;;;;;;;;;5052348;28;20206;-82
2022/08/15 14:35:59;;;;;;;2.03;1.85;;;;;;;;;;5051872;28;20577;-82
2022/08/15 14:38:28;;;;;;;2.10;1.67;;;;;;;;;;5052443;28;20226;-82
2022/08/15 14:40:56;;;;;;;1.80;1.70;;;;;;;;;;5051869;28;20234;-83
2022/08/15 14:43:23;;;;;;;2.78;1.90;;;;;;;;;;5052518;28;20210;-83
2022/08/15 14:45:52;;;;;;;2.10;1.73;;;;;;;;;;5047165;28;20236;-83
2022/08/15 14:48:22;;;;;;;2.50;1.80;;;;;;;;;;5047131;28;20244;-83
2022/08/15 14:50:49;;;;;;;3.00;1.95;;;;;;;;;;5052828;28;20229;-82
2022/08/15 14:53:22;;;;;;;2.05;1.60;;;;;;;;;;5051708;28;20210;-83
2022/08/15 14:55:51;;;;;;;3.10;1.63;;;;;;;;;;5051345;28;20641;-82
2022/08/15 14:58:18;;;;;;;1.80;1.67;;;;;;;;;;5049391;28;20258;-82
2022/08/15 15:00:46;;;;;;;2.15;1.95;;;;;;;;;;5052849;28;20257;-83
2022/08/15 15:03:13;;;;;;;2.05;1.90;;;;;;;;;;5051716;28;20202;-83